createdAt,value
2019-04-03T00:02:04.371Z,2.13
2019-04-03T00:04:34.370Z,4.20
2019-04-03T00:07:05.504Z,2.87
2019-04-03T00:09:35.855Z,2.70
2019-04-03T00:12:04.734Z,3.00
2019-04-03T00:14:33.915Z,2.73
2019-04-03T00:17:02.655Z,2.83
2019-04-03T00:19:31.410Z,3.37
2019-04-03T00:22:00.320Z,3.10
2019-04-03T00:24:29.248Z,2.50
2019-04-03T00:26:57.977Z,2.30
2019-04-03T00:29:26.900Z,4.10
2019-04-03T00:31:55.734Z,4.20
2019-04-03T00:34:24.656Z,3.17
2019-04-03T00:36:53.745Z,4.13
2019-04-03T00:39:24.280Z,4.60
2019-04-03T00:41:54.627Z,2.43
2019-04-03T00:44:24.258Z,2.93
2019-04-03T00:46:53.799Z,3.67
2019-04-03T00:49:25.710Z,2.37
2019-04-03T00:51:57.102Z,3.67
2019-04-03T00:54:26.439Z,4.47
2019-04-03T00:56:56.509Z,3.60
2019-04-03T00:59:26.394Z,2.53
2019-04-03T01:01:56.569Z,2.70
2019-04-03T01:04:28.246Z,4.60
2019-04-03T01:06:58.538Z,2.93
2019-04-03T01:09:29.062Z,4.00
2019-04-03T01:12:00.117Z,5.33
2019-04-03T01:14:28.178Z,2.33
2019-04-03T01:16:56.910Z,3.87
2019-04-03T01:19:26.048Z,3.33
2019-04-03T01:21:55.238Z,2.97
2019-04-03T01:24:23.968Z,3.20
2019-04-03T01:26:52.749Z,3.13
2019-04-03T01:29:21.580Z,2.63
2019-04-03T01:31:50.535Z,4.07
2019-04-03T01:34:19.171Z,3.33
2019-04-03T01:36:48.471Z,2.43
2019-04-03T01:39:17.345Z,3.10
2019-04-03T01:41:46.099Z,2.77
2019-04-03T01:44:15.059Z,2.60
2019-04-03T01:46:43.991Z,3.23
2019-04-03T01:49:12.959Z,2.63
2019-04-03T01:51:41.825Z,3.33
2019-04-03T01:54:10.465Z,2.60
2019-04-03T01:56:39.357Z,2.60
2019-04-03T01:59:08.132Z,3.87
2019-04-03T02:01:38.672Z,3.20
2019-04-03T02:04:07.589Z,4.00
2019-04-03T02:06:36.330Z,3.00
2019-04-03T02:09:07.289Z,3.47
2019-04-03T02:11:36.150Z,4.27
2019-04-03T02:14:05.143Z,3.33
2019-04-03T02:16:33.891Z,4.17
2019-04-03T02:19:02.815Z,3.00
2019-04-03T02:21:31.611Z,3.10
2019-04-03T02:24:01.174Z,2.47
2019-04-03T02:26:32.521Z,4.20
2019-04-03T02:29:01.194Z,2.67
2019-04-03T02:31:30.093Z,2.60
2019-04-03T02:34:01.345Z,4.50
2019-04-03T02:36:29.265Z,2.97
2019-04-03T02:38:58.462Z,3.20
2019-04-03T02:41:27.650Z,3.60
2019-04-03T02:43:56.681Z,3.13
2019-04-03T02:46:28.143Z,2.93
2019-04-03T02:48:56.198Z,3.03
2019-04-03T02:51:25.285Z,2.80
2019-04-03T02:53:54.422Z,3.83
2019-04-03T02:56:23.433Z,5.00
2019-04-03T02:58:54.003Z,2.90
2019-04-03T03:01:22.485Z,3.23
2019-04-03T03:03:51.218Z,3.17
2019-04-03T03:06:19.988Z,3.10
2019-04-03T03:08:48.748Z,2.67
2019-04-03T03:11:18.031Z,2.80
2019-04-03T03:13:48.451Z,3.40
2019-04-03T03:16:18.800Z,3.20
2019-04-03T03:18:47.925Z,3.17
2019-04-03T03:21:17.097Z,3.20
2019-04-03T03:23:46.166Z,3.27
2019-04-03T03:26:15.247Z,3.70
2019-04-03T03:28:46.855Z,4.83
2019-04-03T03:31:15.150Z,3.47
2019-04-03T03:33:45.336Z,4.67
2019-04-03T03:36:19.935Z,3.70
2019-04-03T03:38:45.165Z,3.53
2019-04-03T03:41:14.489Z,3.30
2019-04-03T03:43:44.000Z,3.60
2019-04-03T03:46:13.417Z,3.57
2019-04-03T03:48:44.594Z,3.77
2019-04-03T03:51:14.346Z,4.23
2019-04-03T03:53:44.531Z,4.70
2019-04-03T03:56:14.129Z,4.43
2019-04-03T03:58:45.736Z,4.83
2019-04-03T04:01:14.266Z,5.30
2019-04-03T04:03:43.368Z,4.23
2019-04-03T04:06:12.700Z,4.00
2019-04-03T04:08:44.304Z,5.60
2019-04-03T04:11:12.129Z,4.40
2019-04-03T04:13:41.161Z,4.57
2019-04-03T04:16:09.974Z,3.83
2019-04-03T04:18:38.708Z,6.00
2019-04-03T04:21:10.542Z,4.13
2019-04-03T04:23:37.943Z,4.57
2019-04-03T04:26:06.811Z,4.50
2019-04-03T04:28:39.524Z,4.27
2019-04-03T04:31:07.545Z,4.50
2019-04-03T04:33:36.413Z,7.70
2019-04-03T04:36:05.041Z,4.77
2019-04-03T04:38:33.805Z,5.63
2019-04-03T04:41:02.795Z,4.43
2019-04-03T04:43:31.375Z,5.00
2019-04-03T04:46:00.069Z,5.57
2019-04-03T04:48:28.772Z,5.37
2019-04-03T04:50:57.608Z,4.30
2019-04-03T04:53:29.325Z,5.03
2019-04-03T04:55:56.776Z,4.93
2019-04-03T04:58:25.465Z,4.87
2019-04-03T05:00:54.542Z,4.80
2019-04-03T05:03:23.497Z,4.50
2019-04-03T05:05:52.115Z,3.70
2019-04-03T05:08:21.061Z,3.83
2019-04-03T05:10:49.714Z,4.40
2019-04-03T05:13:18.553Z,4.23
2019-04-03T05:15:47.310Z,4.23
2019-04-03T05:18:16.625Z,4.10
2019-04-03T05:20:45.426Z,6.80
2019-04-03T05:23:14.401Z,5.27
2019-04-03T05:25:43.715Z,5.07
2019-04-03T05:28:12.299Z,4.47
2019-04-03T05:30:41.235Z,4.47
2019-04-03T05:33:11.431Z,4.00
2019-04-03T05:35:40.394Z,4.90
2019-04-03T05:38:09.163Z,4.60
2019-04-03T05:40:38.169Z,4.60
2019-04-03T05:43:07.306Z,4.73
2019-04-03T05:45:35.925Z,4.90
2019-04-03T05:48:05.164Z,5.07
2019-04-03T05:50:36.256Z,5.00
2019-04-03T05:53:06.115Z,4.93
2019-04-03T05:55:35.517Z,4.80
2019-04-03T05:58:04.513Z,5.30
2019-04-03T06:00:33.297Z,5.43
2019-04-03T06:03:01.975Z,4.50
2019-04-03T06:05:30.732Z,5.00
2019-04-03T06:07:59.561Z,6.03
2019-04-03T06:10:29.833Z,5.33
2019-04-03T06:12:59.080Z,4.90
2019-04-03T06:15:27.717Z,5.30
2019-04-03T06:17:56.349Z,5.13
2019-04-03T06:20:25.243Z,6.23
2019-04-03T06:22:54.119Z,5.70
2019-04-03T06:25:23.037Z,6.03
2019-04-03T06:27:51.674Z,8.03
2019-04-03T06:30:20.395Z,6.50
2019-04-03T06:32:48.987Z,6.70
2019-04-03T06:35:17.599Z,6.90
2019-04-03T06:37:46.202Z,5.57
2019-04-03T06:40:14.885Z,6.03
2019-04-03T06:42:44.922Z,7.40
2019-04-03T06:45:16.007Z,6.13
2019-04-03T06:47:44.392Z,7.80
2019-04-03T06:50:13.528Z,5.87
2019-04-03T06:52:43.438Z,7.90
2019-04-03T06:55:12.043Z,5.57
2019-04-03T06:57:40.933Z,5.63
2019-04-03T07:00:09.616Z,5.17
2019-04-03T07:02:38.370Z,5.40
2019-04-03T07:05:09.645Z,5.20
2019-04-03T07:07:37.289Z,5.40
2019-04-03T07:10:08.949Z,5.27
2019-04-03T07:12:36.716Z,5.40
2019-04-03T07:15:05.859Z,5.30
2019-04-03T07:17:34.561Z,6.77
2019-04-03T07:20:13.443Z,5.60
2019-04-03T07:22:33.625Z,5.97
2019-04-03T07:25:03.520Z,5.17
2019-04-03T07:27:32.561Z,5.30
2019-04-03T07:30:01.503Z,5.17
2019-04-03T07:32:30.095Z,5.70
2019-04-03T07:34:58.831Z,5.57
2019-04-03T07:37:27.392Z,6.20
2019-04-03T07:39:58.340Z,5.50
2019-04-03T07:42:26.308Z,5.30
2019-04-03T07:44:55.017Z,5.33
2019-04-03T07:47:23.693Z,4.97
2019-04-03T07:49:52.295Z,4.80
2019-04-03T07:52:20.946Z,6.80
2019-04-03T07:54:51.862Z,5.23
2019-04-03T07:57:20.171Z,4.80
2019-04-03T07:59:48.788Z,5.03
2019-04-03T08:02:17.394Z,4.50
2019-04-03T08:04:46.027Z,4.67
2019-04-03T08:07:14.671Z,5.20
2019-04-03T08:09:43.421Z,5.30
2019-04-03T08:12:12.363Z,4.77
2019-04-03T08:14:41.904Z,5.60
2019-04-03T08:17:11.005Z,5.07
2019-04-03T08:19:39.611Z,5.97
2019-04-03T08:22:08.202Z,5.27
2019-04-03T08:24:37.931Z,4.83
2019-04-03T08:27:08.184Z,5.00
2019-04-03T08:29:38.540Z,7.07
2019-04-03T08:32:07.455Z,5.27
2019-04-03T08:34:36.085Z,5.23
2019-04-03T08:37:04.876Z,5.17
2019-04-03T08:39:33.531Z,4.93
2019-04-03T08:42:02.367Z,4.73
2019-04-03T08:44:31.555Z,4.77
2019-04-03T08:47:00.253Z,5.00
2019-04-03T08:49:29.013Z,4.20
2019-04-03T08:51:57.601Z,4.87
2019-04-03T08:54:26.448Z,5.87
2019-04-03T08:56:55.041Z,4.83
2019-04-03T08:59:23.891Z,4.57
2019-04-03T09:01:55.099Z,4.80
2019-04-03T09:04:23.189Z,5.37
2019-04-03T09:06:54.098Z,5.00
2019-04-03T09:09:22.219Z,5.10
2019-04-03T09:11:51.072Z,5.20
2019-04-03T09:14:20.332Z,4.57
2019-04-03T09:16:49.337Z,5.03
2019-04-03T09:19:17.991Z,4.80
2019-04-03T09:21:50.225Z,5.97
2019-04-03T09:24:17.265Z,5.07
2019-04-03T09:26:45.879Z,5.13
2019-04-03T09:29:14.561Z,5.13
2019-04-03T09:31:43.219Z,4.70
2019-04-03T09:34:12.162Z,4.97
2019-04-03T09:36:40.825Z,5.23
2019-04-03T09:39:14.228Z,5.13
2019-04-03T09:41:42.667Z,5.30
2019-04-03T09:44:11.433Z,5.13
2019-04-03T09:46:40.061Z,5.90
2019-04-03T09:49:08.993Z,5.67
2019-04-03T09:51:37.652Z,6.17
2019-04-03T09:54:06.247Z,5.83
2019-04-03T09:56:36.893Z,4.97
2019-04-03T09:59:07.444Z,5.80
2019-04-03T10:01:36.759Z,6.30
2019-04-03T10:04:05.782Z,6.10
2019-04-03T10:06:34.511Z,6.23
2019-04-03T10:09:03.215Z,5.63
2019-04-03T10:11:31.840Z,5.87
2019-04-03T10:14:00.760Z,6.10
2019-04-03T10:16:29.586Z,6.23
2019-04-03T10:18:58.463Z,6.10
2019-04-03T10:21:27.222Z,6.30
2019-04-03T10:23:55.843Z,6.17
2019-04-03T10:26:24.721Z,5.90
2019-04-03T10:28:53.301Z,6.43
2019-04-03T10:31:24.239Z,6.83
2019-04-03T10:33:52.486Z,5.83
2019-04-03T10:36:21.065Z,5.87
2019-04-03T10:38:50.127Z,6.57
2019-04-03T10:41:19.480Z,6.23
2019-04-03T10:43:48.323Z,5.33
2019-04-03T10:46:18.585Z,5.53
2019-04-03T10:48:47.195Z,5.30
2019-04-03T10:51:16.195Z,4.77
2019-04-03T10:53:44.803Z,5.57
2019-04-03T10:56:13.404Z,5.43
2019-04-03T10:58:43.618Z,5.20
2019-04-03T11:01:12.500Z,5.60
2019-04-03T11:03:41.095Z,5.47
2019-04-03T11:06:09.705Z,5.00
2019-04-03T11:08:38.455Z,5.80
2019-04-03T11:11:07.120Z,5.60
2019-04-03T11:13:35.739Z,5.73
2019-04-03T11:16:04.405Z,5.90
2019-04-03T11:18:33.040Z,5.90
2019-04-03T11:21:01.720Z,6.17
2019-04-03T11:23:38.239Z,5.77
2019-04-03T11:26:00.672Z,6.53
2019-04-03T11:28:29.580Z,6.73
2019-04-03T11:31:00.846Z,6.07
2019-04-03T11:33:28.973Z,7.53
2019-04-03T11:35:57.844Z,6.80
2019-04-03T11:38:28.720Z,6.17
2019-04-03T11:40:57.003Z,6.70
2019-04-03T11:43:25.848Z,6.40
2019-04-03T11:45:54.717Z,7.00
2019-04-03T11:48:26.530Z,7.57
2019-04-03T11:50:56.220Z,7.33
2019-04-03T11:53:24.823Z,7.20
2019-04-03T11:55:53.728Z,6.50
2019-04-03T11:58:22.542Z,8.13
2019-04-03T12:00:51.642Z,6.83
2019-04-03T12:03:20.447Z,7.20
2019-04-03T12:05:49.372Z,7.00
2019-04-03T12:08:18.038Z,7.00
2019-04-03T12:10:46.652Z,6.73
2019-04-03T12:13:15.294Z,6.87
2019-04-03T12:15:44.805Z,6.83
2019-04-03T12:18:14.030Z,6.70
2019-04-03T12:20:44.901Z,6.83
2019-04-03T12:23:13.250Z,5.17
2019-04-03T12:25:41.885Z,4.90
2019-04-03T12:28:10.982Z,4.43
2019-04-03T12:30:39.870Z,4.40
2019-04-03T12:33:08.460Z,3.37
2019-04-03T12:35:37.410Z,2.57
2019-04-03T12:38:06.064Z,2.60
2019-04-03T12:40:34.839Z,2.00
2019-04-03T12:43:03.479Z,2.77
2019-04-03T12:45:32.620Z,1.57
2019-04-03T12:48:01.476Z,2.37
2019-04-03T12:50:30.086Z,2.13
2019-04-03T12:52:58.860Z,1.63
2019-04-03T12:55:27.599Z,1.43
2019-04-03T12:57:56.449Z,1.00
2019-04-03T13:00:25.849Z,1.30
2019-04-03T13:02:54.583Z,1.80
2019-04-03T13:05:23.773Z,1.57
2019-04-03T13:07:52.465Z,0.97
2019-04-03T13:10:21.521Z,1.27
2019-04-03T13:12:50.275Z,1.17
2019-04-03T13:15:19.343Z,1.40
2019-04-03T13:17:49.047Z,2.10
2019-04-03T13:20:17.751Z,0.80
2019-04-03T13:22:46.414Z,1.57
2019-04-03T13:25:15.210Z,0.77
2019-04-03T13:27:44.091Z,1.30
2019-04-03T13:30:14.507Z,0.43
2019-04-03T13:32:43.154Z,1.43
2019-04-03T13:35:14.657Z,0.40
2019-04-03T13:37:42.299Z,0.60
2019-04-03T13:40:11.444Z,0.80
2019-04-03T13:42:40.189Z,0.63
2019-04-03T13:45:09.375Z,1.60
2019-04-03T13:47:41.726Z,1.47
2019-04-03T13:50:09.479Z,1.00
2019-04-03T13:52:42.564Z,2.60
2019-04-03T13:55:08.811Z,1.47
2019-04-03T13:57:37.746Z,0.87
2019-04-03T14:00:18.699Z,0.97
2019-04-03T14:02:37.444Z,1.60
2019-04-03T14:05:06.535Z,1.63
2019-04-03T14:07:35.257Z,0.73
2019-04-03T14:10:04.406Z,1.77
2019-04-03T14:12:33.204Z,0.77
2019-04-03T14:15:04.360Z,0.50
2019-04-03T14:17:32.280Z,0.60
2019-04-03T14:20:00.916Z,0.73
2019-04-03T14:22:31.159Z,0.50
2019-04-03T14:24:59.850Z,0.40
2019-04-03T14:27:30.577Z,0.50
2019-04-03T14:29:59.742Z,0.80
2019-04-03T14:32:28.656Z,0.87
2019-04-03T14:35:06.195Z,1.43
2019-04-03T14:37:27.586Z,0.60
2019-04-03T14:39:56.714Z,0.97
2019-04-03T14:42:26.399Z,0.60
2019-04-03T14:44:55.787Z,1.47
2019-04-03T14:47:27.505Z,0.80
2019-04-03T14:49:54.922Z,0.50
2019-04-03T14:52:24.000Z,0.70
2019-04-03T14:54:53.845Z,0.87
2019-04-03T14:57:24.276Z,0.60
2019-04-03T14:59:53.266Z,0.60
2019-04-03T15:02:23.809Z,0.63
2019-04-03T15:04:52.251Z,1.90
2019-04-03T15:07:20.979Z,1.30
2019-04-03T15:09:49.945Z,1.20
2019-04-03T15:12:19.134Z,0.90
2019-04-03T15:14:48.151Z,1.27
2019-04-03T15:17:16.826Z,1.37
2019-04-03T15:19:46.331Z,0.70
2019-04-03T15:22:15.402Z,1.43
2019-04-03T15:24:44.599Z,0.73
2019-04-03T15:27:13.262Z,0.60
2019-04-03T15:29:41.988Z,0.60
2019-04-03T15:32:11.129Z,0.67
2019-04-03T15:34:40.237Z,0.60
2019-04-03T15:37:09.855Z,0.50
2019-04-03T15:39:38.920Z,0.50
2019-04-03T15:42:08.320Z,0.80
2019-04-03T15:44:37.447Z,0.67
2019-04-03T15:47:07.912Z,0.80
2019-04-03T15:49:36.644Z,1.17
2019-04-03T15:52:05.242Z,0.80
2019-04-03T15:54:34.063Z,0.53
2019-04-03T15:57:03.189Z,1.23
2019-04-03T15:59:31.966Z,0.67
2019-04-03T16:02:00.694Z,0.80
2019-04-03T16:04:29.284Z,0.70
2019-04-03T16:07:00.655Z,1.20
2019-04-03T16:09:28.407Z,0.87
2019-04-03T16:11:59.741Z,0.80
2019-04-03T16:14:28.435Z,1.03
2019-04-03T16:17:00.561Z,0.80
2019-04-03T16:19:28.158Z,0.80
2019-04-03T16:21:58.178Z,1.00
2019-04-03T16:24:26.957Z,0.80
2019-04-03T16:26:56.704Z,0.73
2019-04-03T16:29:27.013Z,0.97
2019-04-03T16:31:57.230Z,0.60
2019-04-03T16:34:26.385Z,0.80
2019-04-03T16:36:55.390Z,1.10
2019-04-03T16:39:24.146Z,1.27
2019-04-03T16:41:52.764Z,0.90
2019-04-03T16:44:21.390Z,1.03
2019-04-03T16:46:49.970Z,1.10
2019-04-03T16:49:18.551Z,1.20
2019-04-03T16:51:47.171Z,1.03
2019-04-03T16:54:15.773Z,1.00
2019-04-03T16:56:44.373Z,1.10
2019-04-03T16:59:12.957Z,1.07
2019-04-03T17:01:44.428Z,0.50
2019-04-03T17:04:23.314Z,0.87
2019-04-03T17:06:42.136Z,0.83
2019-04-03T17:09:10.732Z,0.97
2019-04-03T17:11:39.373Z,0.90
2019-04-03T17:14:07.963Z,1.13
2019-04-03T17:16:37.509Z,2.00
2019-04-03T17:19:06.904Z,0.83
2019-04-03T17:21:37.538Z,1.20
2019-04-03T17:24:06.117Z,1.10
2019-04-03T17:26:42.506Z,1.43
2019-04-03T17:29:06.109Z,3.00
2019-04-03T17:31:35.487Z,8.90
2019-04-03T17:34:06.384Z,3.13
2019-04-03T17:36:34.665Z,2.07
2019-04-03T17:39:06.084Z,2.90
2019-04-03T17:41:37.705Z,2.87
2019-04-03T17:44:05.573Z,2.97
2019-04-03T17:46:34.171Z,3.30
2019-04-03T17:49:02.822Z,3.50
2019-04-03T17:51:33.341Z,3.43
2019-04-03T17:54:01.741Z,3.80
2019-04-03T17:56:30.355Z,3.70
2019-04-03T17:58:58.944Z,4.33
2019-04-03T18:01:27.522Z,4.13
2019-04-03T18:03:56.160Z,3.57
2019-04-03T18:06:27.180Z,3.97
2019-04-03T18:08:55.016Z,3.70
2019-04-03T18:11:23.629Z,3.70
2019-04-03T18:13:52.988Z,4.23
2019-04-03T18:16:22.516Z,4.77
2019-04-03T18:18:51.241Z,4.80
2019-04-03T18:21:19.894Z,4.70
2019-04-03T18:23:48.526Z,4.27
2019-04-03T18:26:17.191Z,4.93
2019-04-03T18:28:45.798Z,4.57
2019-04-03T18:31:14.374Z,5.20
2019-04-03T18:33:43.019Z,5.20
2019-04-03T18:36:11.773Z,6.97
2019-04-03T18:38:40.369Z,7.20
2019-04-03T18:41:08.986Z,8.43
2019-04-03T18:43:37.597Z,9.10
2019-04-03T18:46:06.200Z,8.73
2019-04-03T18:48:34.853Z,13.33
2019-04-03T18:51:05.647Z,10.00
2019-04-03T18:53:33.808Z,9.97
2019-04-03T18:56:02.421Z,9.80
2019-04-03T18:58:31.024Z,9.83
2019-04-03T19:01:01.493Z,9.53
2019-04-03T19:03:29.918Z,8.43
2019-04-03T19:05:59.880Z,9.37
2019-04-03T19:08:28.716Z,9.07
2019-04-03T19:11:02.602Z,9.20
2019-04-03T19:13:27.696Z,8.60
2019-04-03T19:15:56.336Z,8.03
2019-04-03T19:18:24.980Z,8.70
2019-04-03T19:20:53.626Z,8.73
2019-04-03T19:23:22.412Z,8.87
2019-04-03T19:25:51.089Z,8.30
2019-04-03T19:28:19.675Z,8.80
2019-04-03T19:30:48.252Z,9.70
2019-04-03T19:33:16.862Z,10.70
2019-04-03T19:35:45.479Z,10.90
2019-04-03T19:38:14.095Z,10.87
2019-04-03T19:40:42.752Z,11.13
2019-04-03T19:43:14.485Z,11.07
2019-04-03T19:45:41.679Z,11.33
2019-04-03T19:48:10.369Z,11.63
2019-04-03T19:50:38.981Z,11.67
2019-04-03T19:53:07.999Z,11.83
2019-04-03T19:55:36.871Z,11.30
2019-04-03T19:58:05.455Z,10.67
2019-04-03T20:00:34.969Z,11.40
2019-04-03T20:03:04.089Z,10.37
2019-04-03T20:05:32.691Z,11.03
2019-04-03T20:08:01.391Z,10.37
2019-04-03T20:10:29.987Z,9.80
2019-04-03T20:12:58.591Z,7.53
2019-04-03T20:15:27.299Z,7.53
2019-04-03T20:17:55.925Z,7.80
2019-04-03T20:20:24.515Z,6.83
2019-04-03T20:22:53.152Z,7.27
2019-04-03T20:25:21.791Z,7.40
2019-04-03T20:27:52.229Z,7.40
2019-04-03T20:30:20.693Z,7.90
2019-04-03T20:32:49.311Z,8.00
2019-04-03T20:35:18.776Z,7.03
2019-04-03T20:37:47.531Z,8.50
2019-04-03T20:40:16.216Z,7.70
2019-04-03T20:42:44.803Z,8.43
2019-04-03T20:45:13.489Z,7.93
2019-04-03T20:47:42.125Z,8.30
2019-04-03T20:50:10.790Z,9.23
2019-04-03T20:52:39.379Z,9.73
2019-04-03T20:55:08.144Z,11.30
2019-04-03T20:57:36.734Z,10.13
2019-04-03T21:00:07.352Z,10.80
2019-04-03T21:02:35.949Z,10.83
2019-04-03T21:05:07.524Z,9.77
2019-04-03T21:07:35.085Z,9.53
2019-04-03T21:10:03.816Z,9.53
2019-04-03T21:12:33.894Z,9.37
2019-04-03T21:15:08.459Z,8.90
2019-04-03T21:17:32.997Z,8.73
2019-04-03T21:20:01.742Z,9.07
2019-04-03T21:22:30.437Z,9.30
2019-04-03T21:24:59.139Z,11.03
2019-04-03T21:27:27.789Z,11.97
2019-04-03T21:29:58.197Z,10.73
2019-04-03T21:32:26.953Z,9.33
2019-04-03T21:34:56.987Z,8.47
2019-04-03T21:37:25.687Z,11.57
2019-04-03T21:39:54.281Z,10.77
2019-04-03T21:42:24.983Z,11.20
2019-04-03T21:44:54.949Z,12.63
2019-04-03T21:47:23.905Z,10.80
2019-04-03T21:49:52.509Z,12.60
2019-04-03T21:52:22.769Z,12.23
2019-04-03T21:54:51.412Z,11.30
2019-04-03T21:57:20.482Z,11.73
2019-04-03T21:59:49.199Z,12.60
2019-04-03T22:02:17.943Z,13.20
2019-04-03T22:04:46.530Z,14.77
2019-04-03T22:07:15.153Z,12.47
2019-04-03T22:09:43.923Z,14.27
2019-04-03T22:12:12.511Z,14.77
2019-04-03T22:14:42.907Z,15.27
2019-04-03T22:17:11.426Z,14.23
2019-04-03T22:19:40.013Z,13.57
2019-04-03T22:22:08.639Z,13.63
2019-04-03T22:24:37.804Z,15.10
2019-04-03T22:27:07.029Z,14.77
2019-04-03T22:29:35.807Z,14.07
2019-04-03T22:32:04.413Z,13.97
2019-04-03T22:34:32.999Z,15.57
2019-04-03T22:37:03.847Z,15.90
2019-04-03T22:39:31.966Z,15.90
2019-04-03T22:42:00.572Z,15.60
2019-04-03T22:44:29.193Z,14.73
2019-04-03T22:46:57.867Z,15.33
2019-04-03T22:49:26.831Z,14.27
2019-04-03T22:51:55.445Z,14.93
2019-04-03T22:54:24.160Z,15.93
2019-04-03T22:56:52.772Z,16.10
2019-04-03T22:59:23.542Z,15.63
2019-04-03T23:01:51.721Z,16.00
2019-04-03T23:04:20.328Z,15.53
2019-04-03T23:06:49.692Z,16.93
2019-04-03T23:09:18.981Z,15.90
2019-04-03T23:11:47.681Z,11.67
2019-04-03T23:14:16.322Z,12.10
2019-04-03T23:16:44.937Z,12.73
2019-04-03T23:19:13.519Z,12.50
2019-04-03T23:21:42.131Z,12.70
2019-04-03T23:24:10.751Z,13.07
2019-04-03T23:26:39.360Z,13.37
2019-04-03T23:29:08.026Z,13.13
2019-04-03T23:31:36.711Z,11.53
2019-04-03T23:34:05.307Z,11.37
2019-04-03T23:36:33.912Z,10.53
2019-04-03T23:39:02.588Z,10.57
2019-04-03T23:41:31.203Z,11.23
2019-04-03T23:43:59.829Z,10.33
2019-04-03T23:46:28.415Z,10.10
2019-04-03T23:48:57.295Z,10.13
2019-04-03T23:51:27.975Z,10.27
2019-04-03T23:53:56.706Z,8.80
2019-04-03T23:56:25.277Z,7.70
2019-04-03T23:58:53.899Z,8.13
